Flight Track Log - Related Links

Times and Time Zones

All times are in EDT time to prevent confusion due to time zone crossing. See the DAL1022 flight status page for this flight to view local times or setup timezone preferences in your user account.

Time Position Orientation Groundspeed Altitude Reporting Facility
EDT Latitude Longitude Course Direction KTS MPH feet Rate Location/Type
Sun 03:27:11 PM 35.0431 -106.5767 118° Southeast 188 216 6,200  Level Albuquerque Center
Sun 03:27:41 PM 35.0250 -106.5581 140° Southeast 191 220 7,100 1,451 Climbing Albuquerque Center
Sun 03:28:42 PM 34.9611 -106.5592 181° South 249 287 8,400 1,448 Climbing Albuquerque Center
Sun 03:30:00 PM 35.0523 -106.1508 97° East  Level Estimated
Sun 03:30:06 PM 34.8575 -106.5564 179° South 294 338 10,600  Level Albuquerque Center
Sun 03:31:00 PM 35.0560 -105.9979 99° East  Level Estimated
Sun 03:31:08 PM 34.7728 -106.5267 164° South 325 374 13,300  Level Albuquerque Center
Sun 03:32:00 PM 34.9966 -105.8634 118° Southeast  Level FlightAware Approximate
Sun 03:32:10 PM 34.7489 -106.4125 104° East 361 415 14,700  Level Albuquerque Center
Sun 03:33:12 PM 34.7406 -106.2508 94° East 402 463 16,300 1,452 Climbing Albuquerque Center
Sun 03:34:14 PM 34.7339 -106.1194 93° East 435 501 17,700 1,597 Climbing Albuquerque Center
Sun 03:35:16 PM 34.7225 -105.9392 94° East 446 513 19,600 1,645 Climbing Albuquerque Center
Sun 03:36:18 PM 34.7128 -105.8003 95° East 448 516 21,100 2,195 Climbing Albuquerque Center
Sun 03:37:19 PM 34.7014 -105.6206 94° East 453 521 24,100 1,854 Climbing Albuquerque Center
Sun 03:38:21 PM 34.6922 -105.4689 94° East 448 516 24,900 1,355 Climbing Albuquerque Center
Sun 03:39:23 PM 34.6817 -105.3114 95° East 460 529 26,900 1,355 Climbing Albuquerque Center
Sun 03:40:25 PM 34.6714 -105.1583 95° East 455 524 27,700 677 Climbing Albuquerque Center
Sun 03:41:27 PM 34.6614 -104.9989 94° East 465 535 28,300 532 Climbing Albuquerque Center
Sun 03:42:29 PM 34.6503 -104.8336 95° East 480 552 28,800 968 Climbing Albuquerque Center
Sun 03:43:31 PM 34.6378 -104.6656 95° East 492 566 30,300 1,258 Climbing Albuquerque Center
Sun 03:44:33 PM 34.6233 -104.4742 95° East 489 563 31,400 919 Climbing Albuquerque Center
Sun 03:45:35 PM 34.6119 -104.3081 95° East 491 565 32,200 780 Climbing Albuquerque Center
Sun 03:46:36 PM 34.6000 -104.1408 95° East 495 570 33,000 390 Climbing Albuquerque Center
Sun 03:47:38 PM 34.5869 -103.9725 95° East 498 573 33,000  Level Albuquerque Center
Sun 03:48:40 PM 34.5744 -103.8028 95° East 503 579 33,000  Level Albuquerque Center
Sun 03:49:42 PM 34.5600 -103.6342 96° East 502 578 33,000  Level Albuquerque Center
Sun 03:50:44 PM 34.5475 -103.4650 95° East 502 578 33,000 145 Level Albuquerque Center
Sun 03:51:46 PM 34.5314 -103.2683 96° East 501 577 33,300 780 Climbing Albuquerque Center
Sun 03:52:47 PM 34.5172 -103.0992 96° East 501 577 34,600 1,122 Climbing Albuquerque Center
Sun 03:53:49 PM 34.5131 -102.9328 92° East 495 570 35,600 823 Climbing Albuquerque Center
Sun 03:54:51 PM 34.5378 -102.7667 80° East 498 573 36,300 677 Climbing Albuquerque Center
Sun 03:55:53 PM 34.5669 -102.6150 77° East 497 572 37,000 339 Climbing Albuquerque Center
Sun 03:56:55 PM 34.6019 -102.4175 78° East 500 575 37,000  Level Albuquerque Center
Sun 03:57:56 PM 34.6308 -102.2539 78° East 499 574 37,000  Level Albuquerque Center
Sun 03:58:58 PM 34.6589 -102.0900 78° East 499 574 37,000  Level Albuquerque Center
Sun 04:00:00 PM 34.6883 -101.9261 78° East 501 577 37,000  Level Albuquerque Center
Sun 04:01:02 PM 34.7161 -101.7622 78° East 501 577 37,000  Level Albuquerque Center
Sun 04:02:04 PM 34.7444 -101.5983 78° East 501 577 37,000  Level Albuquerque Center
Sun 04:03:06 PM 34.7778 -101.4019 78° East 500 575 37,000  Level Albuquerque Center
Sun 04:04:07 PM 34.8067 -101.2386 78° East 499 574 37,000  Level Albuquerque Center
Sun 04:05:09 PM 34.8339 -101.0753 78° East 498 573 37,000  Level Albuquerque Center
Sun 04:06:11 PM 34.8578 -100.9136 80° East 493 567 37,000  Level Albuquerque Center
Sun 04:07:13 PM 34.8694 -100.7469 85° East 497 572 37,000  Level Albuquerque Center
Sun 04:08:15 PM 34.8800 -100.5456 86° East 499 574 37,000  Level Albuquerque Center
Sun 04:09:17 PM 34.8881 -100.3733 87° East 499 574 37,000  Level Albuquerque Center
Sun 04:10:18 PM 34.8983 -100.2067 86° East 496 571 37,000  Level Albuquerque Center
Sun 04:11:20 PM 34.9069 -100.0394 86° East 496 571 37,000  Level Albuquerque Center
Sun 04:12:22 PM 34.9158 -99.8714 86° East 498 573 37,000  Level Albuquerque Center
Sun 04:13:15 PM 34.9217 -99.7281 87° East 496 571 37,000  Level Fort Worth Center
Sun 04:14:15 PM 34.9308 -99.5636 86° East 495 570 37,000  Level Fort Worth Center
Sun 04:15:15 PM 34.9381 -99.3917 87° East 495 570 37,000  Level Fort Worth Center
Sun 04:16:15 PM 34.9447 -99.2222 87° East 495 570 37,000  Level Fort Worth Center
Sun 04:17:15 PM 34.9511 -99.0550 87° East 495 570 37,000  Level Fort Worth Center
Sun 04:18:15 PM 34.9594 -98.8881 86° East 495 570 37,000  Level Fort Worth Center
Sun 04:19:15 PM 34.9675 -98.7183 87° East 495 570 37,000  Level Fort Worth Center
Sun 04:20:15 PM 34.9733 -98.5539 87° East 495 570 37,000  Level Fort Worth Center
Sun 04:21:15 PM 34.9789 -98.3942 88° East 480 552 37,000  Level Fort Worth Center
Sun 04:22:15 PM 34.9864 -98.2269 87° East 480 552 37,000  Level Fort Worth Center
Sun 04:23:15 PM 34.9917 -98.0597 88° East 480 552 37,000  Level Fort Worth Center
Sun 04:24:15 PM 34.9964 -97.8950 88° East 480 552 37,000  Level Fort Worth Center
Sun 04:25:15 PM 35.0011 -97.7328 88° East 480 552 37,000  Level Fort Worth Center
Sun 04:26:15 PM 35.0056 -97.5631 88° East 480 552 37,000  Level Fort Worth Center
Sun 04:27:15 PM 35.0100 -97.3983 88° East 480 552 37,000  Level Fort Worth Center
Sun 04:28:15 PM 35.0161 -97.2158 88° East 486 559 37,000  Level Fort Worth Center
Sun 04:29:15 PM 35.0219 -97.0458 88° East 486 559 37,000  Level Fort Worth Center
Sun 04:30:15 PM 35.0275 -96.8836 88° East 491 565 37,000  Level Fort Worth Center
Sun 04:31:15 PM 35.0289 -96.7164 89° East 491 565 37,000  Level Fort Worth Center
Sun 04:32:15 PM 35.0342 -96.5514 88° East 491 565 37,000  Level Fort Worth Center
Sun 04:33:15 PM 35.0392 -96.3867 88° East 491 565 37,000  Level Fort Worth Center
Sun 04:34:15 PM 35.0419 -96.2192 89° East 491 565 37,000  Level Fort Worth Center
Sun 04:35:15 PM 35.0444 -96.0542 89° East 486 559 37,000  Level Fort Worth Center
Sun 04:36:15 PM 35.0486 -95.8894 88° East 486 559 37,000  Level Fort Worth Center
Sun 04:37:15 PM 35.0531 -95.7294 88° East 478 550 37,000  Level Fort Worth Center
Sun 04:38:15 PM 35.0569 -95.5619 88° East 478 550 37,000  Level Fort Worth Center
Sun 04:39:15 PM 35.0583 -95.3972 89° East 478 550 37,000  Level Fort Worth Center
Sun 04:41:20 PM 35.0622 -95.0706 89° East 476 548 37,000  Level Memphis Center
Sun 04:42:20 PM 35.0642 -94.9058 89° East 476 548 37,000  Level Memphis Center
Sun 04:43:20 PM 35.0661 -94.7383 89° East 481 554 37,000  Level Memphis Center
Sun 04:44:20 PM 35.0683 -94.5483 89° East 499 574 37,000  Level Memphis Center
Sun 04:45:20 PM 35.0678 -94.3808 90° East 494 568 37,000 350 Level Memphis Center
Sun 04:46:20 PM 35.0686 -94.2158 90° East 494 568 37,700 750 Climbing Memphis Center
Sun 04:47:20 PM 35.0717 -94.0511 89° East 494 568 38,500 650 Climbing Memphis Center
Sun 04:48:20 PM 35.0700 -93.8889 91° East 487 560 39,000 250 Climbing Memphis Center
Sun 04:49:20 PM 35.0703 -93.7289 90° East 482 555 39,000  Level Memphis Center
Sun 04:50:20 PM 35.0706 -93.5614 90° East 475 547 39,000  Level Memphis Center
Sun 04:51:20 PM 35.0683 -93.3992 91° East 475 547 39,000  Level Memphis Center
Sun 04:52:20 PM 35.0681 -93.2367 90° East 475 547 39,000  Level Memphis Center
Sun 04:53:20 PM 35.0678 -93.0692 90° East 481 554 39,000  Level Memphis Center
Sun 04:54:20 PM 35.0669 -92.9042 90° East 481 554 39,000  Level Memphis Center
Sun 04:55:20 PM 35.0658 -92.7544 90° East 481 554 39,000  Level Memphis Center
Sun 04:56:20 PM 35.0667 -92.5922 90° East 481 554 39,000  Level Memphis Center
Sun 04:57:20 PM 35.0633 -92.4297 91° East 481 554 39,000  Level Memphis Center
Sun 04:58:20 PM 35.0617 -92.2622 91° East 476 548 39,000  Level Memphis Center
Sun 04:59:20 PM 35.0619 -92.0975 90° East 476 548 39,000  Level Memphis Center
Sun 05:00:20 PM 35.0600 -91.9375 91° East 476 548 39,000  Level Memphis Center
Sun 05:01:20 PM 35.0556 -91.7750 92° East 476 548 39,000  Level Memphis Center
Sun 05:02:20 PM 35.0533 -91.6128 91° East 476 548 39,000  Level Memphis Center
Sun 05:03:20 PM 35.0506 -91.4503 91° East 476 548 39,000  Level Memphis Center
Sun 05:04:20 PM 35.0497 -91.2931 90° East 470 541 39,000  Level Memphis Center
Sun 05:05:20 PM 35.0447 -91.1306 92° East 475 547 39,000  Level Memphis Center
Sun 05:06:20 PM 35.0433 -90.9708 91° East 475 547 39,000  Level Memphis Center
Sun 05:07:20 PM 35.0400 -90.8061 91° East 475 547 39,000  Level Memphis Center
Sun 05:08:20 PM 35.0342 -90.6283 92° East 475 547 39,000  Level Memphis Center
Sun 05:09:20 PM 35.0303 -90.4686 92° East 475 547 39,000  Level Memphis Center
Sun 05:10:20 PM 35.0261 -90.3039 92° East 475 547 39,000  Level Memphis Center
Sun 05:11:20 PM 35.0217 -90.1417 92° East 475 547 39,000  Level Memphis Center
Sun 05:12:20 PM 35.0172 -89.9742 92° East 481 554 39,000  Level Memphis Center
Sun 05:13:20 PM 34.9997 -89.8094 97° East 486 559 39,000  Level Memphis Center
Sun 05:14:20 PM 34.9761 -89.6475 100° East 509 586 39,000  Level Memphis Center
Sun 05:15:20 PM 34.9436 -89.4831 104° East 515 593 39,000  Level Memphis Center
Sun 05:16:20 PM 34.9175 -89.3161 101° East 504 580 39,000  Level Memphis Center
Sun 05:17:20 PM 34.8886 -89.1369 101° East 504 580 39,000 -450 Level Memphis Center
Sun 05:18:20 PM 34.8639 -88.9753 101° East 493 567 38,100 -1,100 Descending Memphis Center
Sun 05:19:20 PM 34.8392 -88.8111 100° East 487 560 36,800 -1,350 Descending Memphis Center
Sun 05:20:20 PM 34.8139 -88.6422 100° East 493 567 35,400 -900 Descending Memphis Center
Sun 05:21:20 PM 34.7886 -88.4858 101° East 501 577 35,000 -200 Descending Memphis Center
Sun 05:22:20 PM 34.7631 -88.3169 100° East 485 558 35,000 -550 Level Memphis Center
Sun 05:23:20 PM 34.7350 -88.1458 101° East 497 572 33,900 -1,000 Descending Memphis Center
Sun 05:24:20 PM 34.7133 -87.9797 99° East 510 587 33,000 -450 Descending Memphis Center
Sun 05:25:20 PM 34.7333 -87.8325 81° East 478 550 33,000  Level Memphis Center
Sun 05:26:20 PM 34.7592 -87.6725 79° East 478 550 33,000  Level Memphis Center
Sun 05:27:20 PM 34.7136 -87.5022 108° East 476 548 33,000  Level Memphis Center
Sun 05:29:30 PM 34.6019 -87.1681 112° Southeast 496 571 33,000  Level Atlanta Center
Sun 05:30:30 PM 34.5583 -86.9847 106° East 509 586 33,000 -250 Level Atlanta Center
Sun 05:31:30 PM 34.5206 -86.8119 105° East 514 592 32,500 -1,400 Descending Atlanta Center
Sun 05:32:30 PM 34.4847 -86.6444 105° East 519 597 30,200 -2,100 Descending Atlanta Center
Sun 05:33:30 PM 34.4503 -86.4847 105° East 512 589 28,300 -1,550 Descending Atlanta Center
Sun 05:34:30 PM 34.4197 -86.3428 105° East 476 548 27,100 -1,300 Descending Atlanta Center
Sun 05:35:30 PM 34.3889 -86.2036 105° East 438 504 25,700 -1,500 Descending Atlanta Center
Sun 05:36:30 PM 34.3597 -86.0719 105° East 415 478 24,100 -850 Descending Atlanta Center
Sun 05:37:30 PM 34.3286 -85.9406 106° East 409 471 24,000 -50 Descending Atlanta Center
Sun 05:38:30 PM 34.3092 -85.8294 102° East 409 471 24,000 -800 Level Atlanta Center
Sun 05:39:30 PM 34.2781 -85.6753 104° East 399 459 22,400 -1,800 Descending Atlanta Center
Sun 05:40:30 PM 34.2525 -85.5517 104° East 388 447 20,400 -1,750 Descending Atlanta Center
Sun 05:41:30 PM 34.2267 -85.4331 105° East 375 432 18,900 -1,600 Descending Atlanta Center
Sun 05:42:30 PM 34.1967 -85.3247 108° East 355 409 17,200 -1,550 Descending Atlanta Center
Sun 05:43:30 PM 34.1581 -85.2136 113° Southeast 348 400 15,800 -1,400 Descending Atlanta Center
Sun 05:44:30 PM 34.1194 -85.1078 114° Southeast 348 400 14,400 -850 Descending Atlanta Center
Sun 05:45:30 PM 34.0722 -85.0044 119° Southeast 348 400 14,100 -400 Descending Atlanta Center
Sun 05:46:30 PM 34.0019 -84.9133 133° Southeast 356 410 13,600 -900 Descending Atlanta Center
Sun 05:47:30 PM 33.9356 -84.8475 141° Southeast 356 410 12,300 -800 Descending Atlanta Center
Sun 05:48:30 PM 33.8694 -84.7694 136° Southeast 340 391 12,000 -150 Descending Atlanta Center
Sun 05:49:30 PM 33.8114 -84.6889 131° Southeast 321 369 12,000  Level Atlanta Center
Sun 05:50:36 PM 33.7500 -84.6000 130° Southeast 269 310 12,000 -524 Level Atlanta TRACON
Sun 05:51:36 PM 33.7333 -84.5167 104° East 272 313 10,900 -1,400 Descending Atlanta TRACON
Sun 05:52:36 PM 33.7333 -84.4167 90° East 295 339 9,200 -1,361 Descending Atlanta TRACON
Sun 05:53:35 PM 33.7333 -84.3333 90° East 275 316 8,200 -1,210 Descending Atlanta TRACON
Sun 05:54:35 PM 33.7333 -84.2500 90° East 239 275 6,800 -1,500 Descending Atlanta TRACON
Sun 05:55:35 PM 33.7167 -84.1667 103° East 237 273 5,200 -1,488 Descending Atlanta TRACON
Sun 05:56:36 PM 33.6667 -84.1833 196° South 230 265 3,800 -793 Descending Atlanta TRACON
Sun 05:57:36 PM 33.6500 -84.2500 253° West 206 237 3,600 -600 Descending Atlanta TRACON
Sun 05:58:36 PM 33.6500 -84.3167 270° West 191 220 2,600 -850 Descending Atlanta TRACON
Sun 05:59:36 PM 33.6500 -84.3667 270° West 139 160 1,900 -700 Descending Atlanta TRACON

Login

Don't have an account? Register now (free) for customized features, flight alerts, and more!